createdAt,value
2022-11-24T00:00:17.684Z,97708.84
2022-11-24T00:02:44.750Z,97716.03
2022-11-24T00:05:13.274Z,97716.94
2022-11-24T00:07:40.201Z,97716.59
2022-11-24T00:10:07.769Z,97715.81
2022-11-24T00:12:34.998Z,97721.19
2022-11-24T00:15:02.037Z,97725.44
2022-11-24T00:17:29.486Z,97718.72
2022-11-24T00:19:56.474Z,97720.75
2022-11-24T00:22:24.881Z,97717.72
2022-11-24T00:24:51.833Z,97722.66
2022-11-24T00:27:18.783Z,97722.88
2022-11-24T00:29:45.693Z,97713.59
2022-11-24T00:32:12.600Z,97722.88
2022-11-24T00:34:39.579Z,97727.00
2022-11-24T00:37:06.582Z,97725.22
2022-11-24T00:39:34.898Z,97724.19
2022-11-24T00:42:02.132Z,97729.34
2022-11-24T00:44:29.085Z,97723.41
2022-11-24T00:46:56.173Z,97721.84
2022-11-24T00:49:23.157Z,97728.53
2022-11-24T00:51:50.120Z,97732.91
2022-11-24T00:54:17.089Z,97732.66
2022-11-24T00:56:45.419Z,97730.09
2022-11-24T00:59:12.333Z,97731.09
2022-11-24T01:01:39.400Z,97730.88
2022-11-24T01:04:06.393Z,97737.03
2022-11-24T01:06:35.281Z,97731.69
2022-11-24T01:09:03.415Z,97731.47
2022-11-24T01:11:50.479Z,97729.66
2022-11-24T01:14:19.695Z,97734.47
2022-11-24T01:16:46.641Z,97739.38
2022-11-24T01:19:13.672Z,97735.22
2022-11-24T01:21:40.822Z,97741.16
2022-11-24T01:24:08.041Z,97730.09
2022-11-24T01:26:35.011Z,97733.47
2022-11-24T01:29:01.951Z,97722.97
2022-11-24T01:31:30.271Z,97722.97
2022-11-24T01:33:57.163Z,97722.16
2022-11-24T01:36:24.176Z,97718.84
2022-11-24T01:38:51.904Z,97719.81
2022-11-24T01:41:20.658Z,97711.59
2022-11-24T01:43:48.189Z,97707.69
2022-11-24T01:46:20.232Z,97719.16
2022-11-24T01:48:52.877Z,97708.66
2022-11-24T01:51:23.656Z,97722.53
2022-11-24T01:53:55.585Z,97711.38
2022-11-24T01:56:23.364Z,97709.81
2022-11-24T01:58:53.257Z,97707.03
2022-11-24T02:01:20.563Z,97710.34
2022-11-24T02:03:50.224Z,97700.66
2022-11-24T02:06:20.309Z,97711.69
2022-11-24T02:08:55.321Z,97707.13
2022-11-24T02:11:24.702Z,97702.19
2022-11-24T02:13:53.449Z,97708.34
2022-11-24T02:16:20.819Z,97710.34
2022-11-24T02:18:49.525Z,97714.59
2022-11-24T02:21:17.146Z,97708.81
2022-11-24T02:23:51.026Z,97712.03
2022-11-24T02:26:32.760Z,97708.72
2022-11-24T02:28:59.808Z,97703.59
2022-11-24T02:31:26.811Z,97704.69
2022-11-24T02:33:54.826Z,97707.56
2022-11-24T02:36:21.979Z,97712.41
2022-11-24T02:38:48.889Z,97706.69
2022-11-24T02:41:20.088Z,97711.59
2022-11-24T02:43:52.040Z,97721.31
2022-11-24T02:46:19.104Z,97725.22
2022-11-24T02:48:46.140Z,97719.88
2022-11-24T02:51:13.132Z,97716.06
2022-11-24T02:53:40.107Z,97724.56
2022-11-24T02:56:07.689Z,97729.03
2022-11-24T02:58:34.947Z,97725.44
2022-11-24T03:01:04.905Z,97720.84
2022-11-24T03:03:32.000Z,97718.28
2022-11-24T03:05:58.995Z,97718.53
2022-11-24T03:08:26.100Z,97708.50
2022-11-24T03:10:53.068Z,97713.63
2022-11-24T03:13:20.057Z,97722.88
2022-11-24T03:15:46.994Z,97724.66
2022-11-24T03:18:15.343Z,97718.75
2022-11-24T03:20:42.398Z,97721.31
2022-11-24T03:23:09.452Z,97722.09
2022-11-24T03:25:36.465Z,97718.19
2022-11-24T03:28:03.721Z,97720.97
2022-11-24T03:30:30.686Z,97724.34
2022-11-24T03:32:58.126Z,97726.91
2022-11-24T03:35:26.428Z,97738.63
2022-11-24T03:37:53.545Z,97738.63
2022-11-24T03:40:20.588Z,97734.81
2022-11-24T03:42:47.762Z,97735.72
2022-11-24T03:45:45.367Z,97742.88
2022-11-24T03:48:02.168Z,97735.16
2022-11-24T03:50:30.630Z,97742.97
2022-11-24T03:52:57.990Z,97734.03
2022-11-24T03:55:25.044Z,97746.66
2022-11-24T03:57:52.033Z,97736.38
2022-11-24T04:00:19.355Z,97750.00
2022-11-24T04:02:48.237Z,97748.22
2022-11-24T04:05:15.653Z,97751.56
2022-11-24T04:07:44.142Z,97749.78
2022-11-24T04:10:11.423Z,97756.47
2022-11-24T04:12:44.866Z,97757.47
2022-11-24T04:15:13.477Z,97755.94
2022-11-24T04:17:40.569Z,97753.38
2022-11-24T04:20:09.046Z,97771.53
2022-11-24T04:22:36.418Z,97766.41
2022-11-24T04:25:06.265Z,97765.63
2022-11-24T04:27:33.704Z,97768.97
2022-11-24T04:30:00.864Z,97774.88
2022-11-24T04:32:27.914Z,97777.44
2022-11-24T04:34:54.825Z,97773.97
2022-11-24T04:37:21.817Z,97780.88
2022-11-24T04:39:48.962Z,97778.91
2022-11-24T04:42:17.652Z,97770.41
2022-11-24T04:44:44.936Z,97779.47
2022-11-24T04:47:15.261Z,97782.03
2022-11-24T04:49:42.306Z,97794.06
2022-11-24T04:52:09.221Z,97795.09
2022-11-24T04:54:37.441Z,97797.88
2022-11-24T04:57:04.640Z,97800.88
2022-11-24T04:59:33.520Z,97798.75
2022-11-24T05:02:00.508Z,97803.63
2022-11-24T05:04:27.668Z,97807.28
2022-11-24T05:06:54.621Z,97813.53
2022-11-24T05:09:21.565Z,97821.00
2022-11-24T05:11:50.919Z,97813.66
2022-11-24T05:14:17.871Z,97826.91
2022-11-24T05:16:46.466Z,97827.78
2022-11-24T05:19:14.196Z,97826.78
2022-11-24T05:21:41.222Z,97830.16
2022-11-24T05:24:08.710Z,97839.94
2022-11-24T05:26:35.734Z,97849.88
2022-11-24T05:29:02.684Z,97848.53
2022-11-24T05:31:29.719Z,97847.63
2022-11-24T05:33:58.140Z,97850.63
2022-11-24T05:36:43.413Z,97862.31
2022-11-24T05:39:10.335Z,97861.94
2022-11-24T05:41:37.831Z,97861.38
2022-11-24T05:44:05.185Z,97858.47
2022-11-24T05:46:32.650Z,97875.50
2022-11-24T05:49:04.174Z,97870.16
2022-11-24T05:51:31.329Z,97872.72
2022-11-24T05:53:58.538Z,97865.78
2022-11-24T05:56:25.495Z,97878.19
2022-11-24T05:58:52.758Z,97874.41
2022-11-24T06:01:19.714Z,97880.91
2022-11-24T06:03:46.648Z,97891.38
2022-11-24T06:06:15.018Z,97886.66
2022-11-24T06:08:41.964Z,97891.38
2022-11-24T06:11:18.580Z,97895.50
2022-11-24T06:13:46.732Z,97897.47
2022-11-24T06:16:14.976Z,97897.94
2022-11-24T06:18:42.243Z,97901.25
2022-11-24T06:21:11.461Z,97906.38
2022-11-24T06:23:40.706Z,97912.88
2022-11-24T06:26:07.830Z,97911.31
2022-11-24T06:28:35.091Z,97911.19
2022-11-24T06:31:02.650Z,97919.22
2022-11-24T06:33:33.500Z,97919.16
2022-11-24T06:36:03.539Z,97919.84
2022-11-24T06:38:31.399Z,97923.56
2022-11-24T06:41:04.244Z,97925.09
2022-11-24T06:43:31.251Z,97935.94
2022-11-24T06:45:58.978Z,97932.38
2022-11-24T06:48:26.930Z,97929.59
2022-11-24T06:50:54.234Z,97940.19
2022-11-24T06:53:21.423Z,97944.91
2022-11-24T06:55:48.414Z,97935.44
2022-11-24T06:58:16.871Z,97937.78
2022-11-24T07:00:44.115Z,97935.75
2022-11-24T07:03:15.716Z,97938.91
2022-11-24T07:05:43.217Z,97941.69
2022-11-24T07:08:14.677Z,97942.25
2022-11-24T07:10:44.700Z,97942.06
2022-11-24T07:13:11.989Z,97939.50
2022-11-24T07:15:40.288Z,97938.47
2022-11-24T07:18:07.226Z,97942.06
2022-11-24T07:20:34.457Z,97937.47
2022-11-24T07:23:01.379Z,97947.94
2022-11-24T07:25:28.485Z,97951.94
2022-11-24T07:27:59.549Z,97951.81
2022-11-24T07:30:28.418Z,97958.38
2022-11-24T07:33:00.658Z,97957.38
2022-11-24T07:35:28.206Z,97966.41
2022-11-24T07:37:56.247Z,97967.75
2022-11-24T07:40:23.941Z,97964.56
2022-11-24T07:42:50.949Z,97969.69
2022-11-24T07:45:17.930Z,97976.38
2022-11-24T07:47:44.887Z,97976.97
2022-11-24T07:50:13.766Z,97981.50
2022-11-24T07:52:40.945Z,97982.88
2022-11-24T07:55:09.149Z,97990.91
2022-11-24T07:57:36.326Z,97984.00
2022-11-24T08:00:05.799Z,97984.66
2022-11-24T08:02:33.834Z,97990.22
2022-11-24T08:05:00.907Z,97981.72
2022-11-24T08:07:29.385Z,97985.09
2022-11-24T08:09:56.460Z,97995.22
2022-11-24T08:12:23.476Z,97993.06
2022-11-24T08:14:50.759Z,98000.78
2022-11-24T08:17:17.816Z,97999.19
2022-11-24T08:19:45.074Z,98002.91
2022-11-24T08:22:12.228Z,97994.06
2022-11-24T08:24:47.139Z,97997.06
2022-11-24T08:27:15.006Z,98007.53
2022-11-24T08:29:42.076Z,98005.81
2022-11-24T08:32:09.809Z,98007.25
2022-11-24T08:34:37.247Z,98015.59
2022-11-24T08:37:04.778Z,98022.28
2022-11-24T08:39:31.993Z,98026.84
2022-11-24T08:42:00.381Z,98031.19
2022-11-24T08:44:28.812Z,98027.81
2022-11-24T08:46:56.290Z,98034.97
2022-11-24T08:49:23.348Z,98034.03
2022-11-24T08:51:51.369Z,98033.59
2022-11-24T08:54:21.717Z,98037.31
2022-11-24T08:56:49.566Z,98043.06
2022-11-24T08:59:18.421Z,98045.03
2022-11-24T09:01:45.560Z,98054.31
2022-11-24T09:04:12.603Z,98059.69
2022-11-24T09:06:39.566Z,98054.97
2022-11-24T09:09:06.862Z,98065.69
2022-11-24T09:11:35.016Z,98065.34
2022-11-24T09:14:02.108Z,98061.00
2022-11-24T09:16:30.564Z,98066.50
2022-11-24T09:18:59.025Z,98074.59
2022-11-24T09:21:26.161Z,98074.22
2022-11-24T09:23:54.563Z,98076.03
2022-11-24T09:26:23.252Z,98077.63
2022-11-24T09:28:54.334Z,98078.47
2022-11-24T09:31:23.147Z,98072.53
2022-11-24T09:33:52.423Z,98074.34
2022-11-24T09:36:20.276Z,98078.09
2022-11-24T09:38:47.956Z,98078.25
2022-11-24T09:41:38.078Z,98078.81
2022-11-24T09:44:10.222Z,98084.63
2022-11-24T09:46:49.837Z,98095.66
2022-11-24T09:49:27.984Z,98080.91
2022-11-24T09:51:57.171Z,98094.94
2022-11-24T09:54:28.564Z,98093.38
2022-11-24T09:56:59.852Z,98089.22
2022-11-24T09:59:27.564Z,98088.25
2022-11-24T10:01:55.824Z,98082.13
2022-11-24T10:04:28.331Z,98082.13
2022-11-24T10:07:01.794Z,98086.09
2022-11-24T10:09:42.965Z,98076.41
2022-11-24T10:12:21.129Z,98079.91
2022-11-24T10:15:19.139Z,98081.22
2022-11-24T10:17:59.681Z,98075.50
2022-11-24T10:20:41.465Z,98083.94
2022-11-24T10:23:26.167Z,98085.94
2022-11-24T10:25:57.489Z,98083.63
2022-11-24T10:28:29.612Z,98080.09
2022-11-24T10:31:13.274Z,98077.34
2022-11-24T10:33:41.746Z,98082.06
2022-11-24T10:36:15.168Z,98089.75
2022-11-24T10:38:49.163Z,98077.94
2022-11-24T10:41:21.090Z,98082.47
2022-11-24T10:43:48.179Z,98079.34
2022-11-24T10:46:19.803Z,98075.38
2022-11-24T10:48:50.501Z,98068.09
2022-11-24T10:51:38.740Z,98069.47
2022-11-24T10:54:10.782Z,98064.38
2022-11-24T10:56:41.376Z,98067.75
2022-11-24T10:59:22.468Z,98067.50
2022-11-24T11:01:50.478Z,98068.09
2022-11-24T11:04:20.434Z,98084.47
2022-11-24T11:06:48.979Z,98068.50
2022-11-24T11:09:19.631Z,98068.72
2022-11-24T11:11:48.823Z,98075.84
2022-11-24T11:14:30.477Z,98076.03
2022-11-24T11:16:58.120Z,98072.34
2022-11-24T11:19:50.893Z,98074.91
2022-11-24T11:22:26.063Z,98075.66
2022-11-24T11:25:05.521Z,98068.19
2022-11-24T11:27:32.654Z,98068.78
2022-11-24T11:36:13.131Z,98076.72
2022-11-24T11:38:42.966Z,98080.84
2022-11-24T11:41:18.794Z,98080.66
2022-11-24T11:43:50.636Z,98081.03
2022-11-24T11:46:17.743Z,98093.66
2022-11-24T11:48:46.857Z,98090.88
2022-11-24T11:51:30.017Z,98091.66
2022-11-24T11:54:07.955Z,98080.63
2022-11-24T11:56:40.337Z,98081.41
2022-11-24T11:59:43.801Z,98101.13
2022-11-24T12:02:38.735Z,98086.53
2022-11-24T12:05:13.810Z,98098.34
2022-11-24T12:07:55.153Z,98098.72
2022-11-24T12:10:36.308Z,98097.34
2022-11-24T12:13:19.515Z,98099.31
2022-11-24T12:15:50.179Z,98098.72
2022-11-24T12:18:55.961Z,98096.34
2022-11-24T12:21:24.536Z,98093.38
2022-11-24T12:24:03.321Z,98092.91
2022-11-24T12:26:40.147Z,98096.28
2022-11-24T12:29:34.316Z,98093.09
2022-11-24T12:32:11.177Z,98105.84
2022-11-24T12:34:51.395Z,98103.69
2022-11-24T12:37:43.729Z,98104.50
2022-11-24T12:40:16.139Z,98103.69
2022-11-24T12:42:57.585Z,98099.38
2022-11-24T12:45:34.442Z,98104.09
2022-11-24T12:48:22.972Z,98104.88
2022-11-24T12:50:51.795Z,98106.59
2022-11-24T12:53:23.713Z,98108.59
2022-11-24T12:55:51.401Z,98097.19
2022-11-24T12:58:25.477Z,98096.19
2022-11-24T13:01:14.715Z,98101.88
2022-11-24T13:03:56.821Z,98112.72
2022-11-24T13:06:28.529Z,98107.38
2022-11-24T13:08:56.754Z,98115.44
2022-11-24T13:11:37.500Z,98114.06
2022-11-24T13:14:15.275Z,98109.34
2022-11-24T13:17:21.831Z,98111.91
2022-11-24T13:19:41.695Z,98111.91
2022-11-24T13:22:22.983Z,98120.56
2022-11-24T13:25:10.846Z,98120.41
2022-11-24T13:27:43.853Z,98113.53
2022-11-24T13:30:50.754Z,98124.78
2022-11-24T13:33:43.094Z,98116.50
2022-11-24T13:36:34.553Z,98116.50
2022-11-24T13:39:04.014Z,98120.66
2022-11-24T13:42:07.368Z,98113.53
2022-11-24T13:44:45.007Z,98115.56
2022-11-24T13:47:45.347Z,98116.78
2022-11-24T13:50:25.103Z,98121.53
2022-11-24T13:53:01.266Z,98124.72
2022-11-24T13:55:38.839Z,98127.63
2022-11-24T13:58:36.237Z,98124.53
2022-11-24T14:01:12.146Z,98137.19
2022-11-24T14:03:55.353Z,98130.91
2022-11-24T14:06:37.905Z,98127.53
2022-11-24T14:09:25.875Z,98121.88
2022-11-24T14:12:04.381Z,98117.56
2022-11-24T14:14:31.534Z,98124.28
2022-11-24T14:17:23.465Z,98121.72
2022-11-24T14:19:52.786Z,98121.72
2022-11-24T14:22:23.273Z,98112.44
2022-11-24T14:24:55.226Z,98117.38
2022-11-24T14:27:29.671Z,98115.81
2022-11-24T14:29:58.182Z,98132.38
2022-11-24T14:32:25.224Z,98120.97
2022-11-24T14:34:54.112Z,98129.63
2022-11-24T14:37:26.044Z,98132.00
2022-11-24T14:39:53.482Z,98132.00
2022-11-24T14:42:23.611Z,98133.97
2022-11-24T14:44:54.198Z,98136.94
2022-11-24T14:47:31.806Z,98133.63
2022-11-24T14:50:09.760Z,98147.22
2022-11-24T14:52:44.994Z,98149.38
2022-11-24T14:55:25.536Z,98147.00
2022-11-24T14:57:52.685Z,98155.31
2022-11-24T15:00:25.869Z,98146.25
2022-11-24T15:02:55.059Z,98154.53
2022-11-24T15:05:24.130Z,98160.44
2022-11-24T15:08:01.557Z,98160.44
2022-11-24T15:10:33.870Z,98161.41
2022-11-24T15:13:04.419Z,98158.09
2022-11-24T15:15:33.757Z,98158.69
2022-11-24T15:18:02.221Z,98165.75
2022-11-24T15:20:32.019Z,98170.88
2022-11-24T15:23:23.468Z,98177.38
2022-11-24T15:25:51.772Z,98178.94
2022-11-24T15:28:19.673Z,98180.94
2022-11-24T15:30:46.620Z,98177.38
2022-11-24T15:33:16.343Z,98171.50
2022-11-24T15:35:44.253Z,98174.25
2022-11-24T15:38:14.049Z,98187.81
2022-11-24T15:40:45.224Z,98189.41
2022-11-24T15:43:19.361Z,98185.84
2022-11-24T15:45:49.421Z,98188.41
2022-11-24T15:48:18.117Z,98184.69
2022-11-24T15:50:46.069Z,98189.03
2022-11-24T15:53:18.968Z,98186.88
2022-11-24T15:55:47.571Z,98196.31
2022-11-24T15:58:15.210Z,98198.28
2022-11-24T16:00:43.182Z,98208.28
2022-11-24T16:03:44.645Z,98208.53
2022-11-24T16:05:57.624Z,98215.59
2022-11-24T16:08:24.642Z,98207.31
2022-11-24T16:10:53.393Z,98208.31
2022-11-24T16:13:20.377Z,98211.25
2022-11-24T16:15:47.331Z,98216.97
2022-11-24T16:18:15.713Z,98207.34
2022-11-24T16:20:42.696Z,98210.50
2022-11-24T16:23:09.976Z,98211.44
2022-11-24T16:25:36.963Z,98208.31
2022-11-24T16:28:05.538Z,98202.22
2022-11-24T16:30:32.517Z,98206.34
2022-11-24T16:32:59.499Z,98209.50
2022-11-24T16:35:26.519Z,98205.56
2022-11-24T16:37:53.596Z,98201.84
2022-11-24T16:40:20.641Z,98211.66
2022-11-24T16:42:47.648Z,98205.97
2022-11-24T16:45:16.055Z,98207.13
2022-11-24T16:47:43.089Z,98213.38
2022-11-24T16:50:11.519Z,98211.81
2022-11-24T16:52:38.893Z,98208.66
2022-11-24T16:55:06.501Z,98217.13
2022-11-24T16:57:33.868Z,98210.44
2022-11-24T17:00:00.926Z,98218.50
2022-11-24T17:02:29.534Z,98215.94
2022-11-24T17:04:56.530Z,98215.94
2022-11-24T17:07:23.485Z,98220.03
2022-11-24T17:09:50.460Z,98224.34
2022-11-24T17:12:17.661Z,98215.91
2022-11-24T17:15:03.127Z,98220.59
2022-11-24T17:17:32.961Z,98221.38
2022-11-24T17:19:59.953Z,98212.91
2022-11-24T17:22:27.990Z,98226.09
2022-11-24T17:24:54.933Z,98230.38
2022-11-24T17:27:21.833Z,98225.28
2022-11-24T17:29:48.815Z,98220.56
2022-11-24T17:32:15.756Z,98218.56
2022-11-24T17:34:44.156Z,98215.78
2022-11-24T17:37:11.049Z,98217.91
2022-11-24T17:39:38.148Z,98228.09
2022-11-24T17:42:05.172Z,98223.97
2022-11-24T17:44:32.342Z,98228.28
2022-11-24T17:47:00.889Z,98224.34
2022-11-24T17:49:30.361Z,98223.94
2022-11-24T17:51:59.063Z,98236.69
2022-11-24T17:57:12.928Z,98234.50
2022-11-24T17:59:40.252Z,98227.00
2022-11-24T18:02:08.806Z,98227.19
2022-11-24T18:04:35.892Z,98218.56
2022-11-24T18:07:04.425Z,98227.38
2022-11-24T18:09:31.358Z,98232.84
2022-11-24T18:11:58.320Z,98230.31
2022-11-24T18:14:25.292Z,98224.63
2022-11-24T18:16:52.384Z,98225.34
2022-11-24T18:19:19.386Z,98232.00
2022-11-24T18:21:46.637Z,98230.84
2022-11-24T18:24:18.509Z,98237.13
2022-11-24T18:26:50.444Z,98232.41
2022-11-24T18:29:17.361Z,98233.38
2022-11-24T18:31:44.390Z,98232.38
2022-11-24T18:34:11.375Z,98229.63
2022-11-24T18:36:38.332Z,98230.03
2022-11-24T18:39:07.399Z,98231.19
2022-11-24T18:41:35.979Z,98233.13
2022-11-24T18:44:07.566Z,98234.13
2022-11-24T18:46:35.018Z,98230.78
2022-11-24T18:49:01.979Z,98238.63
2022-11-24T18:51:29.242Z,98235.47
2022-11-24T18:53:58.252Z,98235.84
2022-11-24T18:56:26.506Z,98243.69
2022-11-24T18:58:57.041Z,98237.81
2022-11-24T19:01:25.792Z,98242.91
2022-11-24T19:03:54.432Z,98243.03
2022-11-24T19:06:27.020Z,98243.41
2022-11-24T19:08:55.021Z,98244.16
2022-11-24T19:11:23.706Z,98243.91
2022-11-24T19:13:51.135Z,98245.88
2022-11-24T19:16:20.700Z,98250.34
2022-11-24T19:18:54.018Z,98250.97
2022-11-24T19:21:22.086Z,98255.66
2022-11-24T19:23:49.856Z,98255.66
2022-11-24T19:26:17.005Z,98260.41
2022-11-24T19:28:44.064Z,98257.28
2022-11-24T19:31:13.012Z,98252.94
2022-11-24T19:33:42.086Z,98257.84
2022-11-24T19:36:12.901Z,98260.41
2022-11-24T19:38:41.420Z,98263.94
2022-11-24T19:41:10.042Z,98263.31
2022-11-24T19:43:37.118Z,98259.81
2022-11-24T19:46:05.319Z,98254.16
2022-11-24T19:48:37.359Z,98249.84
2022-11-24T19:51:07.413Z,98252.56
2022-11-24T19:53:35.612Z,98263.56
2022-11-24T19:56:06.217Z,98258.09
2022-11-24T19:58:33.793Z,98254.41
2022-11-24T20:01:07.057Z,98260.03
2022-11-24T20:03:34.381Z,98266.47
2022-11-24T20:06:01.456Z,98261.75
2022-11-24T20:08:30.777Z,98257.81
2022-11-24T20:11:02.921Z,98262.63
2022-11-24T20:13:30.100Z,98262.56
2022-11-24T20:16:01.822Z,98256.44
2022-11-24T20:18:30.537Z,98257.75
2022-11-24T20:21:02.305Z,98259.72
2022-11-24T20:23:30.686Z,98261.25
2022-11-24T20:26:04.216Z,98262.38
2022-11-24T20:28:31.539Z,98260.22
2022-11-24T20:31:01.874Z,98272.69
2022-11-24T20:33:29.146Z,98261.47
2022-11-24T20:35:56.461Z,98277.47
2022-11-24T20:38:23.574Z,98271.94
2022-11-24T20:40:53.278Z,98272.25
2022-11-24T20:43:20.243Z,98279.59
2022-11-24T20:45:47.241Z,98278.56
2022-11-24T20:48:14.437Z,98273.63
2022-11-24T20:50:41.405Z,98274.44
2022-11-24T20:53:08.415Z,98267.75
2022-11-24T20:55:35.441Z,98275.03
2022-11-24T20:58:03.765Z,98270.91
2022-11-24T21:00:31.000Z,98277.16
2022-11-24T21:02:58.582Z,98277.94
2022-11-24T21:05:25.644Z,98271.25
2022-11-24T21:07:52.604Z,98277.16
2022-11-24T21:10:19.599Z,98272.06
2022-11-24T21:12:46.579Z,98268.72
2022-11-24T21:15:14.910Z,98272.84
2022-11-24T21:17:42.041Z,98281.09
2022-11-24T21:20:10.604Z,98282.84
2022-11-24T21:22:39.047Z,98283.03
2022-11-24T21:25:06.697Z,98276.81
2022-11-24T21:27:33.789Z,98279.19
2022-11-24T21:30:00.726Z,98280.13
2022-11-24T21:32:29.473Z,98272.66
2022-11-24T21:34:56.546Z,98276.00
2022-11-24T21:37:23.543Z,98283.28
2022-11-24T21:39:50.553Z,98277.22
2022-11-24T21:42:17.562Z,98279.75
2022-11-24T21:44:44.612Z,98280.75
2022-11-24T21:47:11.580Z,98282.50
2022-11-24T21:49:39.953Z,98287.41
2022-11-24T21:52:06.882Z,98288.03
2022-11-24T21:54:34.238Z,98280.75
2022-11-24T21:57:01.415Z,98290.56
2022-11-24T21:59:28.409Z,98292.16
2022-11-24T22:01:56.232Z,98290.25
2022-11-24T22:04:23.221Z,98285.94
2022-11-24T22:06:52.638Z,98299.09
2022-11-24T22:09:19.625Z,98294.38
2022-11-24T22:11:49.327Z,98296.91
2022-11-24T22:14:16.456Z,98300.06
2022-11-24T22:16:43.547Z,98295.16
2022-11-24T22:19:10.513Z,98298.47
2022-11-24T22:21:37.438Z,98300.06
2022-11-24T22:24:06.455Z,98297.16
2022-11-24T22:26:33.401Z,98299.53
2022-11-24T22:29:00.574Z,98300.16
2022-11-24T22:31:28.851Z,98299.34
2022-11-24T22:33:57.316Z,98293.09
2022-11-24T22:36:26.008Z,98302.50
2022-11-24T22:38:53.952Z,98303.09
2022-11-24T22:41:22.604Z,98304.72
2022-11-24T22:43:49.881Z,98303.91
2022-11-24T22:46:18.061Z,98299.00
2022-11-24T22:48:46.562Z,98309.19
2022-11-24T22:51:14.991Z,98306.97
2022-11-24T22:53:42.564Z,98307.97
2022-11-24T22:56:11.198Z,98314.63
2022-11-24T22:58:40.120Z,98311.47
2022-11-24T23:01:08.517Z,98319.13
2022-11-24T23:03:36.438Z,98305.16
2022-11-24T23:06:05.336Z,98305.16
2022-11-24T23:08:33.621Z,98303.13
2022-11-24T23:11:01.228Z,98301.38
2022-11-24T23:13:28.428Z,98300.59
2022-11-24T23:16:01.703Z,98305.53
2022-11-24T23:18:28.854Z,98304.56
2022-11-24T23:20:56.165Z,98305.94
2022-11-24T23:23:23.079Z,98313.06
2022-11-24T23:25:50.004Z,98306.38
2022-11-24T23:28:17.056Z,98306.22
2022-11-24T23:30:44.028Z,98310.75
2022-11-24T23:33:12.400Z,98314.53
2022-11-24T23:35:39.436Z,98320.84
2022-11-24T23:38:07.772Z,98330.69
2022-11-24T23:40:35.140Z,98320.91
2022-11-24T23:43:02.100Z,98328.59
2022-11-24T23:45:29.106Z,98327.47
2022-11-24T23:47:56.068Z,98331.84
2022-11-24T23:50:24.388Z,98328.75
2022-11-24T23:52:51.331Z,98329.19
2022-11-24T23:55:19.289Z,98338.22
2022-11-24T23:57:46.433Z,98338.47
